sim
Sign-in with your pilot id or email,
or register
Callsign
Passwort

Schedule Details

Flight Number: EWG5709 (3)
Departure: Pristina Adem Jashari International Airport (BKPR) at 15:55
Arrival: Munich Airport (EDDM) at 17:45
Route: Eurowings Passenger Schedule. Enter filed route here before submitting Pirep.

Weather Information
Getting current METAR information for BKPR 231500Z 30006KT 9999 VCTS FEW030CB SCT040 BKN090 18/13 Q1014 NOSIG
Getting current METAR information for EDDM 231450Z 24007KT 9999 FEW043 19/15 Q1009 NOSIG

Schedule Frequency

Route Map